sensor_id;sensor_type;location;lat;lon;timestamp;temperature;humidity
5962;DHT22;3007;50.770;0.250;2022-11-24T00:00:31;11.10;99.90
5962;DHT22;3007;50.770;0.250;2022-11-24T00:02:59;11.10;99.90
5962;DHT22;3007;50.770;0.250;2022-11-24T00:05:26;11.10;99.90
5962;DHT22;3007;50.770;0.250;2022-11-24T00:07:53;11.10;99.90
5962;DHT22;3007;50.770;0.250;2022-11-24T00:10:19;11.00;99.90
5962;DHT22;3007;50.770;0.250;2022-11-24T00:12:46;10.90;99.90
5962;DHT22;3007;50.770;0.250;2022-11-24T00:15:13;10.80;99.90
5962;DHT22;3007;50.770;0.250;2022-11-24T00:17:40;10.80;99.90
5962;DHT22;3007;50.770;0.250;2022-11-24T00:20:09;10.80;99.90
5962;DHT22;3007;50.770;0.250;2022-11-24T00:22:36;10.70;99.90
5962;DHT22;3007;50.770;0.250;2022-11-24T00:25:04;10.70;99.90
5962;DHT22;3007;50.770;0.250;2022-11-24T00:27:31;10.70;99.90
5962;DHT22;3007;50.770;0.250;2022-11-24T00:29:57;10.60;99.90
5962;DHT22;3007;50.770;0.250;2022-11-24T00:32:27;10.60;99.90
5962;DHT22;3007;50.770;0.250;2022-11-24T00:34:53;10.60;99.90
5962;DHT22;3007;50.770;0.250;2022-11-24T00:37:22;10.60;99.90
5962;DHT22;3007;50.770;0.250;2022-11-24T00:39:49;10.40;99.90
5962;DHT22;3007;50.770;0.250;2022-11-24T00:42:16;10.40;99.90
5962;DHT22;3007;50.770;0.250;2022-11-24T00:44:43;10.30;99.90
5962;DHT22;3007;50.770;0.250;2022-11-24T00:47:10;10.20;99.90
5962;DHT22;3007;50.770;0.250;2022-11-24T00:49:36;10.10;99.90
5962;DHT22;3007;50.770;0.250;2022-11-24T00:52:04;10.10;99.90
5962;DHT22;3007;50.770;0.250;2022-11-24T00:54:32;10.10;99.90
5962;DHT22;3007;50.770;0.250;2022-11-24T00:56:59;10.00;99.90
5962;DHT22;3007;50.770;0.250;2022-11-24T00:59:25;10.10;99.90
5962;DHT22;3007;50.770;0.250;2022-11-24T01:01:52;10.10;99.90
5962;DHT22;3007;50.770;0.250;2022-11-24T01:04:19;10.10;99.90
5962;DHT22;3007;50.770;0.250;2022-11-24T01:06:46;10.00;99.90
5962;DHT22;3007;50.770;0.250;2022-11-24T01:09:13;9.90;99.90
5962;DHT22;3007;50.770;0.250;2022-11-24T01:11:41;9.90;99.90
5962;DHT22;3007;50.770;0.250;2022-11-24T01:14:25;9.90;99.90
5962;DHT22;3007;50.770;0.250;2022-11-24T01:16:53;9.90;99.90
5962;DHT22;3007;50.770;0.250;2022-11-24T01:19:21;9.90;99.90
5962;DHT22;3007;50.770;0.250;2022-11-24T01:21:48;9.90;99.90
5962;DHT22;3007;50.770;0.250;2022-11-24T01:24:15;9.90;99.90
5962;DHT22;3007;50.770;0.250;2022-11-24T01:26:44;9.90;99.90
5962;DHT22;3007;50.770;0.250;2022-11-24T01:29:11;9.90;99.90
5962;DHT22;3007;50.770;0.250;2022-11-24T01:31:38;9.90;99.90
5962;DHT22;3007;50.770;0.250;2022-11-24T01:34:05;10.00;99.90
5962;DHT22;3007;50.770;0.250;2022-11-24T01:36:32;10.00;99.90
5962;DHT22;3007;50.770;0.250;2022-11-24T01:38:59;9.90;99.90
5962;DHT22;3007;50.770;0.250;2022-11-24T01:41:26;9.80;99.90
5962;DHT22;3007;50.770;0.250;2022-11-24T01:43:55;9.70;99.90
5962;DHT22;3007;50.770;0.250;2022-11-24T01:46:25;9.60;99.90
5962;DHT22;3007;50.770;0.250;2022-11-24T01:49:00;9.60;99.90
5962;DHT22;3007;50.770;0.250;2022-11-24T01:51:30;9.50;99.90
5962;DHT22;3007;50.770;0.250;2022-11-24T01:53:59;9.40;99.90
5962;DHT22;3007;50.770;0.250;2022-11-24T01:56:27;9.40;99.90
5962;DHT22;3007;50.770;0.250;2022-11-24T01:59:00;9.30;99.90
5962;DHT22;3007;50.770;0.250;2022-11-24T02:01:28;9.30;99.90
5962;DHT22;3007;50.770;0.250;2022-11-24T02:03:56;9.30;99.90
5962;DHT22;3007;50.770;0.250;2022-11-24T02:06:26;9.30;99.90
5962;DHT22;3007;50.770;0.250;2022-11-24T02:08:57;9.30;99.90
5962;DHT22;3007;50.770;0.250;2022-11-24T02:11:27;9.20;99.90
5962;DHT22;3007;50.770;0.250;2022-11-24T02:13:56;9.20;99.90
5962;DHT22;3007;50.770;0.250;2022-11-24T02:16:24;9.20;99.90
5962;DHT22;3007;50.770;0.250;2022-11-24T02:18:52;9.20;99.90
5962;DHT22;3007;50.770;0.250;2022-11-24T02:21:19;9.20;99.90
5962;DHT22;3007;50.770;0.250;2022-11-24T02:23:53;9.10;99.90
5962;DHT22;3007;50.770;0.250;2022-11-24T02:26:30;9.10;99.90
5962;DHT22;3007;50.770;0.250;2022-11-24T02:28:58;9.20;99.90
5962;DHT22;3007;50.770;0.250;2022-11-24T02:31:25;9.20;99.90
5962;DHT22;3007;50.770;0.250;2022-11-24T02:33:52;9.10;99.90
5962;DHT22;3007;50.770;0.250;2022-11-24T02:36:19;9.10;99.90
5962;DHT22;3007;50.770;0.250;2022-11-24T02:38:46;9.10;99.90
5962;DHT22;3007;50.770;0.250;2022-11-24T02:41:15;9.10;99.90
5962;DHT22;3007;50.770;0.250;2022-11-24T02:43:48;9.00;99.90
5962;DHT22;3007;50.770;0.250;2022-11-24T02:46:17;9.10;99.90
5962;DHT22;3007;50.770;0.250;2022-11-24T02:48:44;9.10;99.90
5962;DHT22;3007;50.770;0.250;2022-11-24T02:51:11;9.10;99.90
5962;DHT22;3007;50.770;0.250;2022-11-24T02:53:38;9.10;99.90
5962;DHT22;3007;50.770;0.250;2022-11-24T02:56:05;9.20;99.90
5962;DHT22;3007;50.770;0.250;2022-11-24T02:58:32;9.20;99.90
5962;DHT22;3007;50.770;0.250;2022-11-24T03:01:00;9.20;99.90
5962;DHT22;3007;50.770;0.250;2022-11-24T03:03:27;9.30;99.90
5962;DHT22;3007;50.770;0.250;2022-11-24T03:05:54;9.30;99.90
5962;DHT22;3007;50.770;0.250;2022-11-24T03:08:21;9.30;99.90
5962;DHT22;3007;50.770;0.250;2022-11-24T03:10:48;9.30;99.90
5962;DHT22;3007;50.770;0.250;2022-11-24T03:13:15;9.30;99.90
5962;DHT22;3007;50.770;0.250;2022-11-24T03:15:42;9.30;99.90
5962;DHT22;3007;50.770;0.250;2022-11-24T03:18:10;9.20;99.90
5962;DHT22;3007;50.770;0.250;2022-11-24T03:20:37;9.20;99.90
5962;DHT22;3007;50.770;0.250;2022-11-24T03:23:04;9.20;99.90
5962;DHT22;3007;50.770;0.250;2022-11-24T03:25:31;9.20;99.90
5962;DHT22;3007;50.770;0.250;2022-11-24T03:27:57;9.20;99.90
5962;DHT22;3007;50.770;0.250;2022-11-24T03:30:24;9.30;99.90
5962;DHT22;3007;50.770;0.250;2022-11-24T03:32:52;9.30;99.90
5962;DHT22;3007;50.770;0.250;2022-11-24T03:35:21;9.30;99.90
5962;DHT22;3007;50.770;0.250;2022-11-24T03:37:48;9.30;99.90
5962;DHT22;3007;50.770;0.250;2022-11-24T03:40:16;9.40;99.90
5962;DHT22;3007;50.770;0.250;2022-11-24T03:42:43;9.40;99.90
5962;DHT22;3007;50.770;0.250;2022-11-24T03:45:10;9.40;99.90
5962;DHT22;3007;50.770;0.250;2022-11-24T03:47:37;9.40;99.90
5962;DHT22;3007;50.770;0.250;2022-11-24T03:50:05;9.40;99.90
5962;DHT22;3007;50.770;0.250;2022-11-24T03:52:33;9.40;99.90
5962;DHT22;3007;50.770;0.250;2022-11-24T03:55:00;9.40;99.90
5962;DHT22;3007;50.770;0.250;2022-11-24T03:57:27;9.40;99.90
5962;DHT22;3007;50.770;0.250;2022-11-24T03:59:54;9.40;99.90
5962;DHT22;3007;50.770;0.250;2022-11-24T04:02:21;9.30;99.90
5962;DHT22;3007;50.770;0.250;2022-11-24T04:04:47;9.30;99.90
5962;DHT22;3007;50.770;0.250;2022-11-24T04:07:17;9.40;99.90
5962;DHT22;3007;50.770;0.250;2022-11-24T04:09:45;9.30;99.90
5962;DHT22;3007;50.770;0.250;2022-11-24T04:12:12;9.30;99.90
5962;DHT22;3007;50.770;0.250;2022-11-24T04:14:56;9.30;99.90
5962;DHT22;3007;50.770;0.250;2022-11-24T04:17:23;9.20;99.90
5962;DHT22;3007;50.770;0.250;2022-11-24T04:19:50;9.30;99.90
5962;DHT22;3007;50.770;0.250;2022-11-24T04:22:17;9.30;99.90
5962;DHT22;3007;50.770;0.250;2022-11-24T04:24:45;9.30;99.90
5962;DHT22;3007;50.770;0.250;2022-11-24T04:27:12;9.30;99.90
5962;DHT22;3007;50.770;0.250;2022-11-24T04:29:39;9.20;99.90
5962;DHT22;3007;50.770;0.250;2022-11-24T04:32:06;9.20;99.90
5962;DHT22;3007;50.770;0.250;2022-11-24T04:34:33;9.20;99.90
5962;DHT22;3007;50.770;0.250;2022-11-24T04:37:00;9.20;99.90
5962;DHT22;3007;50.770;0.250;2022-11-24T04:39:27;9.30;99.90
5962;DHT22;3007;50.770;0.250;2022-11-24T04:41:55;9.20;99.90
5962;DHT22;3007;50.770;0.250;2022-11-24T04:44:22;9.20;99.90
5962;DHT22;3007;50.770;0.250;2022-11-24T04:46:49;9.20;99.90
5962;DHT22;3007;50.770;0.250;2022-11-24T04:49:16;9.20;99.90
5962;DHT22;3007;50.770;0.250;2022-11-24T04:51:43;9.20;99.90
5962;DHT22;3007;50.770;0.250;2022-11-24T04:54:10;9.20;99.90
5962;DHT22;3007;50.770;0.250;2022-11-24T04:56:38;9.20;99.90
5962;DHT22;3007;50.770;0.250;2022-11-24T04:59:10;9.30;99.90
5962;DHT22;3007;50.770;0.250;2022-11-24T05:01:37;9.40;99.90
5962;DHT22;3007;50.770;0.250;2022-11-24T05:04:04;9.40;99.90
5962;DHT22;3007;50.770;0.250;2022-11-24T05:06:31;9.40;99.90
5962;DHT22;3007;50.770;0.250;2022-11-24T05:08:58;9.50;99.90
5962;DHT22;3007;50.770;0.250;2022-11-24T05:11:26;9.40;99.90
5962;DHT22;3007;50.770;0.250;2022-11-24T05:13:53;9.40;99.90
5962;DHT22;3007;50.770;0.250;2022-11-24T05:16:21;9.30;99.90
5962;DHT22;3007;50.770;0.250;2022-11-24T05:18:48;9.30;99.90
5962;DHT22;3007;50.770;0.250;2022-11-24T05:21:15;9.30;99.90
5962;DHT22;3007;50.770;0.250;2022-11-24T05:23:42;9.30;99.90
5962;DHT22;3007;50.770;0.250;2022-11-24T05:26:09;9.30;99.90
5962;DHT22;3007;50.770;0.250;2022-11-24T05:28:36;9.30;99.90
5962;DHT22;3007;50.770;0.250;2022-11-24T05:31:03;9.30;99.90
5962;DHT22;3007;50.770;0.250;2022-11-24T05:33:31;9.30;99.90
5962;DHT22;3007;50.770;0.250;2022-11-24T05:36:00;9.20;99.90
5962;DHT22;3007;50.770;0.250;2022-11-24T05:38:27;9.20;99.90
5962;DHT22;3007;50.770;0.250;2022-11-24T05:40:59;9.20;99.90
5962;DHT22;3007;50.770;0.250;2022-11-24T05:43:26;9.20;99.90
5962;DHT22;3007;50.770;0.250;2022-11-24T05:45:52;9.20;99.90
5962;DHT22;3007;50.770;0.250;2022-11-24T05:48:19;9.30;99.90
5962;DHT22;3007;50.770;0.250;2022-11-24T05:50:53;9.40;99.90
5962;DHT22;3007;50.770;0.250;2022-11-24T05:53:20;9.40;99.90
5962;DHT22;3007;50.770;0.250;2022-11-24T05:55:47;9.40;99.90
5962;DHT22;3007;50.770;0.250;2022-11-24T05:58:13;9.50;99.90
5962;DHT22;3007;50.770;0.250;2022-11-24T06:00:40;9.60;99.90
5962;DHT22;3007;50.770;0.250;2022-11-24T06:03:07;9.60;99.90
5962;DHT22;3007;50.770;0.250;2022-11-24T06:05:35;9.50;99.90
5962;DHT22;3007;50.770;0.250;2022-11-24T06:08:04;9.50;99.90
5962;DHT22;3007;50.770;0.250;2022-11-24T06:10:31;9.50;99.90
5962;DHT22;3007;50.770;0.250;2022-11-24T06:12:57;9.50;99.90
5962;DHT22;3007;50.770;0.250;2022-11-24T06:15:24;9.40;99.90
5962;DHT22;3007;50.770;0.250;2022-11-24T06:17:52;9.40;99.90
5962;DHT22;3007;50.770;0.250;2022-11-24T06:20:20;9.40;99.90
5962;DHT22;3007;50.770;0.250;2022-11-24T06:22:47;9.30;99.90
5962;DHT22;3007;50.770;0.250;2022-11-24T06:25:16;9.20;99.90
5962;DHT22;3007;50.770;0.250;2022-11-24T06:27:43;9.10;99.90
5962;DHT22;3007;50.770;0.250;2022-11-24T06:30:12;9.00;99.90
5962;DHT22;3007;50.770;0.250;2022-11-24T06:32:39;8.90;99.90
5962;DHT22;3007;50.770;0.250;2022-11-24T06:35:10;8.90;99.90
5962;DHT22;3007;50.770;0.250;2022-11-24T06:37:37;8.90;99.90
5962;DHT22;3007;50.770;0.250;2022-11-24T06:40:05;8.90;99.90
5962;DHT22;3007;50.770;0.250;2022-11-24T06:42:35;8.90;99.90
5962;DHT22;3007;50.770;0.250;2022-11-24T06:45:02;8.80;99.90
5962;DHT22;3007;50.770;0.250;2022-11-24T06:47:29;8.80;99.90
5962;DHT22;3007;50.770;0.250;2022-11-24T06:49:55;8.80;99.90
5962;DHT22;3007;50.770;0.250;2022-11-24T06:52:23;8.80;99.90
5962;DHT22;3007;50.770;0.250;2022-11-24T06:54:50;8.80;99.90
5962;DHT22;3007;50.770;0.250;2022-11-24T06:57:20;8.70;99.90
5962;DHT22;3007;50.770;0.250;2022-11-24T06:59:48;8.70;99.90
5962;DHT22;3007;50.770;0.250;2022-11-24T07:02:15;8.60;99.90
5962;DHT22;3007;50.770;0.250;2022-11-24T07:04:42;8.60;99.90
5962;DHT22;3007;50.770;0.250;2022-11-24T07:07:09;8.50;99.90
5962;DHT22;3007;50.770;0.250;2022-11-24T07:09:35;8.50;99.90
5962;DHT22;3007;50.770;0.250;2022-11-24T07:12:03;8.60;99.90
5962;DHT22;3007;50.770;0.250;2022-11-24T07:14:30;8.70;99.90
5962;DHT22;3007;50.770;0.250;2022-11-24T07:16:58;8.70;99.90
5962;DHT22;3007;50.770;0.250;2022-11-24T07:19:26;8.70;99.90
5962;DHT22;3007;50.770;0.250;2022-11-24T07:21:53;8.80;99.90
5962;DHT22;3007;50.770;0.250;2022-11-24T07:24:20;8.90;99.90
5962;DHT22;3007;50.770;0.250;2022-11-24T07:26:47;9.10;99.90
5962;DHT22;3007;50.770;0.250;2022-11-24T07:29:14;9.20;99.90
5962;DHT22;3007;50.770;0.250;2022-11-24T07:31:41;9.40;99.90
5962;DHT22;3007;50.770;0.250;2022-11-24T07:34:09;9.60;99.90
5962;DHT22;3007;50.770;0.250;2022-11-24T07:36:36;9.80;99.90
5962;DHT22;3007;50.770;0.250;2022-11-24T07:39:05;10.00;99.90
5962;DHT22;3007;50.770;0.250;2022-11-24T07:41:32;10.10;99.90
5962;DHT22;3007;50.770;0.250;2022-11-24T07:43:59;10.20;99.90
5962;DHT22;3007;50.770;0.250;2022-11-24T07:46:25;10.30;99.90
5962;DHT22;3007;50.770;0.250;2022-11-24T07:48:52;10.30;99.90
5962;DHT22;3007;50.770;0.250;2022-11-24T07:51:21;10.40;99.90
5962;DHT22;3007;50.770;0.250;2022-11-24T07:53:47;10.40;99.90
5962;DHT22;3007;50.770;0.250;2022-11-24T07:56:14;10.40;99.90
5962;DHT22;3007;50.770;0.250;2022-11-24T07:58:41;10.40;99.90
5962;DHT22;3007;50.770;0.250;2022-11-24T08:01:10;10.40;99.90
5962;DHT22;3007;50.770;0.250;2022-11-24T08:03:37;10.40;99.90
5962;DHT22;3007;50.770;0.250;2022-11-24T08:06:04;10.40;99.90
5962;DHT22;3007;50.770;0.250;2022-11-24T08:08:32;10.30;99.90
5962;DHT22;3007;50.770;0.250;2022-11-24T08:11:04;10.30;99.90
5962;DHT22;3007;50.770;0.250;2022-11-24T08:13:31;10.40;99.90
5962;DHT22;3007;50.770;0.250;2022-11-24T08:15:58;10.40;99.90
5962;DHT22;3007;50.770;0.250;2022-11-24T08:18:28;10.40;99.90
5962;DHT22;3007;50.770;0.250;2022-11-24T08:20:56;10.40;99.90
5962;DHT22;3007;50.770;0.250;2022-11-24T08:23:23;10.40;99.90
5962;DHT22;3007;50.770;0.250;2022-11-24T08:25:52;10.50;99.90
5962;DHT22;3007;50.770;0.250;2022-11-24T08:28:19;10.70;99.90
5962;DHT22;3007;50.770;0.250;2022-11-24T08:30:46;10.80;99.90
5962;DHT22;3007;50.770;0.250;2022-11-24T08:33:13;11.20;99.90
5962;DHT22;3007;50.770;0.250;2022-11-24T08:35:40;11.10;99.90
5962;DHT22;3007;50.770;0.250;2022-11-24T08:38:07;11.20;99.90
5962;DHT22;3007;50.770;0.250;2022-11-24T08:40:34;11.30;99.90
5962;DHT22;3007;50.770;0.250;2022-11-24T08:43:02;11.30;99.90
5962;DHT22;3007;50.770;0.250;2022-11-24T08:45:29;11.40;99.90
5962;DHT22;3007;50.770;0.250;2022-11-24T08:47:56;11.50;99.90
5962;DHT22;3007;50.770;0.250;2022-11-24T08:50:23;11.50;99.90
5962;DHT22;3007;50.770;0.250;2022-11-24T08:52:51;11.60;99.90
5962;DHT22;3007;50.770;0.250;2022-11-24T08:55:18;11.70;99.90
5962;DHT22;3007;50.770;0.250;2022-11-24T08:57:45;11.70;99.90
5962;DHT22;3007;50.770;0.250;2022-11-24T09:00:15;11.70;99.90
5962;DHT22;3007;50.770;0.250;2022-11-24T09:02:55;11.70;99.90
5962;DHT22;3007;50.770;0.250;2022-11-24T09:05:22;11.80;99.90
5962;DHT22;3007;50.770;0.250;2022-11-24T09:07:49;11.90;99.90
5962;DHT22;3007;50.770;0.250;2022-11-24T09:10:17;11.80;99.90
5962;DHT22;3007;50.770;0.250;2022-11-24T09:12:44;11.80;99.90
5962;DHT22;3007;50.770;0.250;2022-11-24T09:15:13;11.80;99.90
5962;DHT22;3007;50.770;0.250;2022-11-24T09:17:41;11.80;99.90
5962;DHT22;3007;50.770;0.250;2022-11-24T09:20:09;11.80;99.90
5962;DHT22;3007;50.770;0.250;2022-11-24T09:22:36;11.90;99.90
5962;DHT22;3007;50.770;0.250;2022-11-24T09:25:06;11.90;99.90
5962;DHT22;3007;50.770;0.250;2022-11-24T09:27:33;11.90;99.90
5962;DHT22;3007;50.770;0.250;2022-11-24T09:30:00;11.80;99.90
5962;DHT22;3007;50.770;0.250;2022-11-24T09:32:29;11.80;99.90
5962;DHT22;3007;50.770;0.250;2022-11-24T09:34:56;11.80;99.90
5962;DHT22;3007;50.770;0.250;2022-11-24T09:37:23;11.80;99.90
5962;DHT22;3007;50.770;0.250;2022-11-24T09:39:49;11.80;99.90
5962;DHT22;3007;50.770;0.250;2022-11-24T09:42:23;11.80;99.90
5962;DHT22;3007;50.770;0.250;2022-11-24T09:45:15;11.90;99.90
5962;DHT22;3007;50.770;0.250;2022-11-24T09:47:56;11.90;99.90
5962;DHT22;3007;50.770;0.250;2022-11-24T09:50:25;12.00;99.90
5962;DHT22;3007;50.770;0.250;2022-11-24T09:52:57;12.10;99.90
5962;DHT22;3007;50.770;0.250;2022-11-24T09:55:39;12.20;99.90
5962;DHT22;3007;50.770;0.250;2022-11-24T09:58:35;12.30;99.90
5962;DHT22;3007;50.770;0.250;2022-11-24T10:01:06;12.30;99.90
5962;DHT22;3007;50.770;0.250;2022-11-24T10:03:40;12.40;99.90
5962;DHT22;3007;50.770;0.250;2022-11-24T10:06:18;12.40;99.90
5962;DHT22;3007;50.770;0.250;2022-11-24T10:09:09;12.40;99.90
5962;DHT22;3007;50.770;0.250;2022-11-24T10:11:41;12.50;99.90
5962;DHT22;3007;50.770;0.250;2022-11-24T10:14:30;12.50;99.90
5962;DHT22;3007;50.770;0.250;2022-11-24T10:17:07;12.50;99.90
5962;DHT22;3007;50.770;0.250;2022-11-24T10:19:42;12.50;99.90
5962;DHT22;3007;50.770;0.250;2022-11-24T10:22:26;12.50;99.90
5962;DHT22;3007;50.770;0.250;2022-11-24T10:25:12;12.60;99.90
5962;DHT22;3007;50.770;0.250;2022-11-24T10:27:44;12.70;99.90
5962;DHT22;3007;50.770;0.250;2022-11-24T10:30:16;12.70;99.90
5962;DHT22;3007;50.770;0.250;2022-11-24T10:32:46;12.80;99.90
5962;DHT22;3007;50.770;0.250;2022-11-24T10:35:18;12.90;99.90
5962;DHT22;3007;50.770;0.250;2022-11-24T10:37:56;12.90;99.90
5962;DHT22;3007;50.770;0.250;2022-11-24T10:40:36;13.00;99.90
5962;DHT22;3007;50.770;0.250;2022-11-24T10:43:04;12.90;99.90
5962;DHT22;3007;50.770;0.250;2022-11-24T10:45:35;12.80;99.90
5962;DHT22;3007;50.770;0.250;2022-11-24T10:48:07;12.80;99.90
5962;DHT22;3007;50.770;0.250;2022-11-24T10:50:40;12.70;99.90
5962;DHT22;3007;50.770;0.250;2022-11-24T10:53:15;12.70;99.90
5962;DHT22;3007;50.770;0.250;2022-11-24T10:56:00;12.70;99.90
5962;DHT22;3007;50.770;0.250;2022-11-24T10:58:30;12.70;99.90
5962;DHT22;3007;50.770;0.250;2022-11-24T11:00:58;12.70;99.90
5962;DHT22;3007;50.770;0.250;2022-11-24T11:03:28;12.70;99.90
5962;DHT22;3007;50.770;0.250;2022-11-24T11:06:00;12.70;99.90
5962;DHT22;3007;50.770;0.250;2022-11-24T11:08:29;12.70;99.90
5962;DHT22;3007;50.770;0.250;2022-11-24T11:11:18;12.80;99.90
5962;DHT22;3007;50.770;0.250;2022-11-24T11:13:48;12.80;99.90
5962;DHT22;3007;50.770;0.250;2022-11-24T11:16:28;12.80;99.90
5962;DHT22;3007;50.770;0.250;2022-11-24T11:18:56;12.90;99.90
5962;DHT22;3007;50.770;0.250;2022-11-24T11:21:35;12.90;99.90
5962;DHT22;3007;50.770;0.250;2022-11-24T11:24:04;12.90;99.90
5962;DHT22;3007;50.770;0.250;2022-11-24T11:26:39;13.00;99.90
5962;DHT22;3007;50.770;0.250;2022-11-24T11:29:15;13.00;99.90
5962;DHT22;3007;50.770;0.250;2022-11-24T11:31:59;13.00;99.90
5962;DHT22;3007;50.770;0.250;2022-11-24T11:34:26;13.00;99.90
5962;DHT22;3007;50.770;0.250;2022-11-24T11:36:56;13.00;99.90
5962;DHT22;3007;50.770;0.250;2022-11-24T11:39:29;13.00;99.90
5962;DHT22;3007;50.770;0.250;2022-11-24T11:42:09;13.00;99.90
5962;DHT22;3007;50.770;0.250;2022-11-24T11:44:42;12.90;99.90
5962;DHT22;3007;50.770;0.250;2022-11-24T11:47:19;12.90;99.90
5962;DHT22;3007;50.770;0.250;2022-11-24T11:49:48;12.80;99.90
5962;DHT22;3007;50.770;0.250;2022-11-24T11:52:40;12.80;99.90
5962;DHT22;3007;50.770;0.250;2022-11-24T11:55:34;12.70;99.90
5962;DHT22;3007;50.770;0.250;2022-11-24T11:58:14;12.70;99.90
5962;DHT22;3007;50.770;0.250;2022-11-24T12:00:47;12.80;99.90
5962;DHT22;3007;50.770;0.250;2022-11-24T12:03:35;12.80;99.90
5962;DHT22;3007;50.770;0.250;2022-11-24T12:06:12;12.70;99.90
5962;DHT22;3007;50.770;0.250;2022-11-24T12:08:55;12.70;99.90
5962;DHT22;3007;50.770;0.250;2022-11-24T12:11:32;12.70;99.90
5962;DHT22;3007;50.770;0.250;2022-11-24T12:14:16;12.80;99.90
5962;DHT22;3007;50.770;0.250;2022-11-24T12:16:51;12.90;99.90
5962;DHT22;3007;50.770;0.250;2022-11-24T12:19:40;13.00;99.90
5962;DHT22;3007;50.770;0.250;2022-11-24T12:22:17;13.10;99.90
5962;DHT22;3007;50.770;0.250;2022-11-24T12:24:55;13.00;99.90
5962;DHT22;3007;50.770;0.250;2022-11-24T12:27:29;13.00;99.90
5962;DHT22;3007;50.770;0.250;2022-11-24T12:30:04;13.00;99.90
5962;DHT22;3007;50.770;0.250;2022-11-24T12:32:50;12.90;99.90
5962;DHT22;3007;50.770;0.250;2022-11-24T12:35:24;13.00;99.90
5962;DHT22;3007;50.770;0.250;2022-11-24T12:38:00;13.00;99.90
5962;DHT22;3007;50.770;0.250;2022-11-24T12:40:44;13.10;99.90
5962;DHT22;3007;50.770;0.250;2022-11-24T12:43:19;13.20;99.90
5962;DHT22;3007;50.770;0.250;2022-11-24T12:45:54;13.40;99.90
5962;DHT22;3007;50.770;0.250;2022-11-24T12:48:46;13.50;99.90
5962;DHT22;3007;50.770;0.250;2022-11-24T12:51:17;13.60;99.90
5962;DHT22;3007;50.770;0.250;2022-11-24T12:53:46;13.60;99.90
5962;DHT22;3007;50.770;0.250;2022-11-24T12:56:18;13.60;99.90
5962;DHT22;3007;50.770;0.250;2022-11-24T12:58:53;13.60;99.90
5962;DHT22;3007;50.770;0.250;2022-11-24T13:01:29;13.50;99.90
5962;DHT22;3007;50.770;0.250;2022-11-24T13:04:08;13.50;99.90
5962;DHT22;3007;50.770;0.250;2022-11-24T13:06:43;13.40;99.90
5962;DHT22;3007;50.770;0.250;2022-11-24T13:09:12;13.40;99.90
5962;DHT22;3007;50.770;0.250;2022-11-24T13:11:41;13.30;99.90
5962;DHT22;3007;50.770;0.250;2022-11-24T13:14:21;13.30;99.90
5962;DHT22;3007;50.770;0.250;2022-11-24T13:16:53;13.30;99.90
5962;DHT22;3007;50.770;0.250;2022-11-24T13:19:22;13.30;99.90
5962;DHT22;3007;50.770;0.250;2022-11-24T13:22:02;13.40;99.90
5962;DHT22;3007;50.770;0.250;2022-11-24T13:24:36;13.40;99.90
5962;DHT22;3007;50.770;0.250;2022-11-24T13:27:39;13.40;99.90
5962;DHT22;3007;50.770;0.250;2022-11-24T13:33:38;13.50;99.90
5962;DHT22;3007;50.770;0.250;2022-11-24T13:36:33;13.50;99.90
5962;DHT22;3007;50.770;0.250;2022-11-24T13:39:19;13.60;99.90
5962;DHT22;3007;50.770;0.250;2022-11-24T13:42:07;13.50;99.90
5962;DHT22;3007;50.770;0.250;2022-11-24T13:45:02;13.50;99.90
5962;DHT22;3007;50.770;0.250;2022-11-24T13:47:34;13.50;99.90
5962;DHT22;3007;50.770;0.250;2022-11-24T13:50:03;13.40;99.90
5962;DHT22;3007;50.770;0.250;2022-11-24T13:52:42;13.30;99.90
5962;DHT22;3007;50.770;0.250;2022-11-24T13:55:32;13.30;99.90
5962;DHT22;3007;50.770;0.250;2022-11-24T13:58:23;13.20;99.90
5962;DHT22;3007;50.770;0.250;2022-11-24T14:04:04;13.20;99.90
5962;DHT22;3007;50.770;0.250;2022-11-24T14:06:36;13.20;99.90
5962;DHT22;3007;50.770;0.250;2022-11-24T14:09:24;13.20;99.90
5962;DHT22;3007;50.770;0.250;2022-11-24T14:12:04;13.20;99.90
5962;DHT22;3007;50.770;0.250;2022-11-24T14:14:31;13.20;99.90
5962;DHT22;3007;50.770;0.250;2022-11-24T14:17:09;13.30;99.90
5962;DHT22;3007;50.770;0.250;2022-11-24T14:19:39;13.40;99.90
5962;DHT22;3007;50.770;0.250;2022-11-24T14:22:12;13.40;99.90
5962;DHT22;3007;50.770;0.250;2022-11-24T14:24:40;13.40;99.90
5962;DHT22;3007;50.770;0.250;2022-11-24T14:27:13;13.50;99.90
5962;DHT22;3007;50.770;0.250;2022-11-24T14:29:51;13.40;99.90
5962;DHT22;3007;50.770;0.250;2022-11-24T14:32:20;13.30;99.90
5962;DHT22;3007;50.770;0.250;2022-11-24T14:34:47;13.30;99.90
5962;DHT22;3007;50.770;0.250;2022-11-24T14:37:16;13.30;99.90
5962;DHT22;3007;50.770;0.250;2022-11-24T14:39:43;13.20;99.90
5962;DHT22;3007;50.770;0.250;2022-11-24T14:42:16;13.30;99.90
5962;DHT22;3007;50.770;0.250;2022-11-24T14:44:47;13.30;99.90
5962;DHT22;3007;50.770;0.250;2022-11-24T14:47:21;13.20;99.90
5962;DHT22;3007;50.770;0.250;2022-11-24T14:49:49;13.20;99.90
5962;DHT22;3007;50.770;0.250;2022-11-24T14:52:18;13.20;99.90
5962;DHT22;3007;50.770;0.250;2022-11-24T14:54:49;13.10;99.90
5962;DHT22;3007;50.770;0.250;2022-11-24T14:57:22;13.10;99.90
5962;DHT22;3007;50.770;0.250;2022-11-24T15:00:05;13.10;99.90
5962;DHT22;3007;50.770;0.250;2022-11-24T15:02:39;13.10;99.90
5962;DHT22;3007;50.770;0.250;2022-11-24T15:05:08;13.10;99.90
5962;DHT22;3007;50.770;0.250;2022-11-24T15:07:36;13.10;99.90
5962;DHT22;3007;50.770;0.250;2022-11-24T15:10:05;13.10;99.90
5962;DHT22;3007;50.770;0.250;2022-11-24T15:12:36;13.00;99.90
5962;DHT22;3007;50.770;0.250;2022-11-24T15:15:05;13.10;99.90
5962;DHT22;3007;50.770;0.250;2022-11-24T15:17:46;13.10;99.90
5962;DHT22;3007;50.770;0.250;2022-11-24T15:20:16;13.10;99.90
5962;DHT22;3007;50.770;0.250;2022-11-24T15:22:45;13.00;99.90
5962;DHT22;3007;50.770;0.250;2022-11-24T15:25:29;13.00;99.90
5962;DHT22;3007;50.770;0.250;2022-11-24T15:27:56;13.00;99.90
5962;DHT22;3007;50.770;0.250;2022-11-24T15:30:24;13.00;99.90
5962;DHT22;3007;50.770;0.250;2022-11-24T15:32:53;13.00;99.90
5962;DHT22;3007;50.770;0.250;2022-11-24T15:35:21;13.00;99.90
5962;DHT22;3007;50.770;0.250;2022-11-24T15:37:48;13.00;99.90
5962;DHT22;3007;50.770;0.250;2022-11-24T15:40:15;13.00;99.90
5962;DHT22;3007;50.770;0.250;2022-11-24T15:42:48;13.00;99.90
5962;DHT22;3007;50.770;0.250;2022-11-24T15:45:15;12.90;99.90
5962;DHT22;3007;50.770;0.250;2022-11-24T15:47:42;12.90;99.90
5962;DHT22;3007;50.770;0.250;2022-11-24T15:50:11;12.90;99.90
5962;DHT22;3007;50.770;0.250;2022-11-24T15:52:38;12.90;99.90
5962;DHT22;3007;50.770;0.250;2022-11-24T15:55:12;12.90;99.90
5962;DHT22;3007;50.770;0.250;2022-11-24T15:57:42;12.90;99.90
5962;DHT22;3007;50.770;0.250;2022-11-24T16:00:13;12.80;99.90
5962;DHT22;3007;50.770;0.250;2022-11-24T16:02:40;12.90;99.90
5962;DHT22;3007;50.770;0.250;2022-11-24T16:05:08;12.90;99.90
5962;DHT22;3007;50.770;0.250;2022-11-24T16:07:36;12.90;99.90
5962;DHT22;3007;50.770;0.250;2022-11-24T16:10:04;12.90;99.90
5962;DHT22;3007;50.770;0.250;2022-11-24T16:12:31;12.90;99.90
5962;DHT22;3007;50.770;0.250;2022-11-24T16:14:58;12.90;99.90
5962;DHT22;3007;50.770;0.250;2022-11-24T16:17:25;12.90;99.90
5962;DHT22;3007;50.770;0.250;2022-11-24T16:19:52;13.00;99.90
5962;DHT22;3007;50.770;0.250;2022-11-24T16:22:18;12.90;99.90
5962;DHT22;3007;50.770;0.250;2022-11-24T16:24:47;12.90;99.90
5962;DHT22;3007;50.770;0.250;2022-11-24T16:27:13;12.90;99.90
5962;DHT22;3007;50.770;0.250;2022-11-24T16:29:40;12.90;99.90
5962;DHT22;3007;50.770;0.250;2022-11-24T16:32:07;13.00;99.90
5962;DHT22;3007;50.770;0.250;2022-11-24T16:34:34;13.00;99.90